Flight Track Log - Related Links

Times and Time Zones

All times are in EDT time to prevent confusion due to time zone crossing. See the EGF4247 flight status page for this flight to view local times or setup timezone preferences in your user account.

Time Position Orientation Groundspeed Altitude Reporting Facility
EDT Latitude Longitude Course Direction KTS MPH feet Rate Location/Type
Thu 04:02:04 PM 42.9500 -78.7000 270° West 163 188 1,400  Level Buffalo TRACON
Thu 04:03:22 PM 43.0167 -78.6500 29° Northeast 236 272 3,700 1,857 Climbing Buffalo TRACON
Thu 04:04:00 PM 42.9521 -79.0920 277° West  Level FlightAware Approximate
Thu 04:04:10 PM 43.0667 -78.6833 334° Northwest 253 291 5,300  Level Buffalo TRACON
Thu 04:05:00 PM 42.9626 -79.2173 277° West  Level FlightAware Approximate
Thu 04:05:16 PM 43.0500 -78.7833 257° West 266 306 7,300  Level Buffalo TRACON
Thu 04:06:00 PM 42.9667 -79.3431 270° West  Level FlightAware Approximate
Thu 04:06:16 PM 43.0667 -78.8833 283° West 277 319 9,200  Level Buffalo TRACON
Thu 04:07:00 PM 42.9667 -79.4692 270° West  Level FlightAware Approximate
Thu 04:07:22 PM 43.0667 -79.0000 270° West 299 344 11,200  Level Buffalo TRACON
Thu 04:08:24 PM 43.0500 -79.1167 259° West 290 334 13,800 1,820 Climbing Toronto Center
Thu 04:09:24 PM 43.0500 -79.2167 270° West 290 334 14,900 1,300 Climbing Toronto Center
Thu 04:10:24 PM 43.0500 -79.3333 270° West 300 345 16,400 1,500 Climbing Toronto Center
Thu 04:11:24 PM 43.0500 -79.4500 270° West 310 357 17,900 1,300 Climbing Toronto Center
Thu 04:12:24 PM 43.0500 -79.5667 270° West 310 357 19,000 1,050 Climbing Toronto Center
Thu 04:13:24 PM 43.0500 -79.7000 270° West 330 380 20,000 950 Climbing Toronto Center
Thu 04:14:24 PM 43.0500 -79.8167 270° West 340 391 20,900 1,050 Climbing Toronto Center
Thu 04:15:24 PM 43.0500 -79.9500 270° West 350 403 22,100 1,150 Climbing Toronto Center
Thu 04:16:24 PM 43.0500 -80.0833 270° West 360 414 23,200 950 Climbing Toronto Center
Thu 04:17:24 PM 43.0500 -80.2333 270° West 360 414 24,000 400 Climbing Toronto Center
Thu 04:18:24 PM 43.0500 -80.3833 270° West 380 437 24,000  Level Toronto Center
Thu 04:19:24 PM 43.0333 -80.5167 260° West 400 460 24,000  Level Toronto Center
Thu 04:20:24 PM 43.0333 -80.6833 270° West 410 472 24,000  Level Toronto Center
Thu 04:21:24 PM 43.0167 -80.8500 262° West 420 483 24,000  Level Toronto Center
Thu 04:22:24 PM 43.0167 -81.0000 270° West 410 472 24,000  Level Toronto Center
Thu 04:23:24 PM 43.0167 -81.1667 270° West 400 460 24,000  Level Toronto Center
Thu 04:24:24 PM 43.0167 -81.3167 270° West 400 460 24,000  Level Toronto Center
Thu 04:25:24 PM 43.0167 -81.4500 270° West 410 472 24,000  Level Toronto Center
Thu 04:26:24 PM 43.0167 -81.6167 270° West 410 472 24,000  Level Toronto Center
Thu 04:27:24 PM 43.0167 -81.7833 270° West 420 483 24,000  Level Toronto Center
Thu 04:28:24 PM 43.0000 -81.9333 261° West 410 472 24,000  Level Toronto Center
Thu 04:29:24 PM 43.0000 -82.1000 270° West 410 472 24,000  Level Toronto Center
Thu 04:30:24 PM 43.0000 -82.2500 270° West 410 472 24,000  Level Toronto Center
Thu 04:31:24 PM 43.0000 -82.3833 270° West 410 472 24,000  Level Toronto Center
Thu 04:32:24 PM 43.0000 -82.5667 270° West 410 472 24,000  Level Toronto Center
Thu 04:33:24 PM 42.9833 -82.7167 261° West 410 472 24,000  Level Toronto Center
Thu 04:33:45 PM 43.0003 -82.7633 296° West 419 482 24,000  Level Cleveland Center
Thu 04:34:45 PM 42.9950 -82.9194 267° West 419 482 24,000  Level Cleveland Center
Thu 04:35:45 PM 42.9897 -83.0753 267° West 419 482 24,000  Level Cleveland Center
Thu 04:36:45 PM 42.9842 -83.2256 267° West 419 482 24,000  Level Cleveland Center
Thu 04:37:45 PM 42.9786 -83.3783 267° West 414 476 24,000  Level Cleveland Center
Thu 04:38:45 PM 42.9725 -83.5372 267° West 414 476 24,000  Level Cleveland Center
Thu 04:39:45 PM 42.9686 -83.6903 268° West 414 476 24,000  Level Cleveland Center
Thu 04:40:45 PM 42.9558 -83.8483 264° West 414 476 24,000  Level Cleveland Center
Thu 04:41:45 PM 42.9383 -84.0206 262° West 421 484 24,000  Level Cleveland Center
Thu 04:42:45 PM 42.9231 -84.1786 263° West 426 490 24,000  Level Cleveland Center
Thu 04:43:13 PM 42.9200 -84.2239 265° West 418 481 24,000  Level Chicago Center
Thu 04:44:15 PM 42.9025 -84.4117 263° West 418 481 24,000  Level Chicago Center
Thu 04:45:17 PM 42.8861 -84.5669 262° West 421 484 24,000  Level Chicago Center
Thu 04:47:21 PM 42.8539 -84.8828 262° West 424 488 24,000  Level Chicago Center
Thu 04:48:23 PM 42.8367 -85.0389 261° West 418 481 24,000  Level Chicago Center
Thu 04:49:25 PM 42.8197 -85.1931 262° West 408 470 24,000  Level Chicago Center
Thu 04:50:27 PM 42.8003 -85.3756 262° West 412 474 24,000  Level Chicago Center
Thu 04:51:29 PM 42.7822 -85.5300 261° West 412 474 24,000  Level Chicago Center
Thu 04:52:32 PM 42.7542 -85.6808 256° West 410 472 24,000 -48 Level Chicago Center
Thu 04:53:34 PM 42.7267 -85.8311 256° West 408 470 23,900 -435 Descending Chicago Center
Thu 04:54:36 PM 42.6989 -85.9839 256° West 411 473 23,100 -823 Descending Chicago Center
Thu 04:55:38 PM 42.6703 -86.1381 256° West 416 479 22,200 -871 Descending Chicago Center
Thu 04:56:40 PM 42.6439 -86.2864 256° West 407 468 21,300 -1,016 Descending Chicago Center
Thu 04:57:42 PM 42.6106 -86.4583 255° West 395 455 20,100 -1,065 Descending Chicago Center
Thu 04:58:44 PM 42.5831 -86.6031 256° West 396 456 19,100 -1,248 Descending Chicago Center
Thu 04:59:47 PM 42.5547 -86.7556 256° West 390 449 17,500 -1,392 Descending Chicago Center
Thu 05:00:49 PM 42.5197 -86.8775 249° West 380 437 16,200 -1,694 Descending Chicago Center
Thu 05:01:51 PM 42.4842 -87.0069 250° West 369 425 14,000 -2,419 Descending Chicago Center
Thu 05:02:53 PM 42.4483 -87.1378 250° West 372 428 11,200 -1,935 Descending Chicago Center
Thu 05:03:55 PM 42.4058 -87.2869 249° West 357 411 10,000 -581 Descending Chicago Center
Thu 05:04:57 PM 42.3728 -87.4139 251° West 347 399 10,000 -484 Level Chicago Center
Thu 05:05:59 PM 42.3439 -87.5119 248° West 285 328 9,000 -1,016 Descending Chicago Center
Thu 05:07:01 PM 42.2922 -87.5856 227° Southwest 278 320 7,900 -960 Descending Chicago Center
Thu 05:08:04 PM 42.2311 -87.6497 218° Southwest 280 322 7,000 -432 Descending Chicago Center
Thu 05:09:06 PM 42.1731 -87.7097 217° Southwest 267 307 7,000  Level Chicago Center
Thu 05:10:08 PM 42.1042 -87.7822 218° Southwest 264 304 7,000  Level Chicago Center
Thu 05:11:10 PM 42.0911 -87.8706 259° West 254 292 7,000  Level Chicago Center
Thu 05:11:25 PM 42.1000 -87.9000 292° West 232 267 7,000  Level Chicago TRACON
Thu 05:12:25 PM 42.1000 -87.9833 270° West 232 267 7,000 -300 Level Chicago TRACON
Thu 05:13:25 PM 42.0833 -88.0667 255° West 227 261 6,400 -1,000 Descending Chicago TRACON
Thu 05:14:25 PM 42.0500 -88.1333 236° Southwest 219 252 5,000 -1,274 Descending Chicago TRACON
Thu 05:15:18 PM 42.0083 -88.1239 170° South 207 238 4,000 -1,132 Descending Chicago Center

Login

Don't have an account? Register now (free) for customized features, flight alerts, and more!